Taupo, New Zealand
Current Conditions -  °F | °C
As of 6:00 PM on Tuesday 27 Jan 2015 (Local Time) from NZAA Reporting Station
Broken Clouds Broken Clouds  
Wind Chill: 75°   Ceiling: 5500
Heat Index: 75°   Visibility: 6mi
Dew Point: 59°   Wind: 8mph
Humidity: 57%   Direction: 230°SW
Pressure: 29.77"   Gusts: NA
Location:  38.69°S, 176.07°E
Report Text: NZAA 270600Z AUTO 23007KT 9999 BKN055/// 24/15 Q1008 BECMG16008KT
Loading
Personal Weather Stations






























Interactive Weather Map New forecast layout! Learn more

10-Day Weather Forecast

Advertisements
Track Severe Weather on mobile